Monday, November 19, 2018, 2:13 AM EST
Back to Local

KGED, Georgetown Sussex Co Airport

Location: Georgetown, DE, United States Lat: 38.683
Local Time: 2:13 AM EST ( 7:13 GMT) Lon: -75.367
Time Zone: US/Eastern Elev: 52 ft

Show me the last for .
Show Decoded

2018-11-19 02:00 METAR KGED 190700Z AUTO 00000KT 2SM BR CLR 03/02 A3019 RMK AO2 T00330022 $ =
2018-11-19 01:54 METAR KGED 190654Z AUTO 00000KT 1SM BR CLR 03/02 A3019 RMK AO2 SLP222 T00330022
                 $ =
2018-11-19 01:36 METAR KGED 190636Z AUTO 00000KT 1 3/4SM BR CLR 04/02 A3019 RMK AO2 VIS 1 1/4V2
                 1/2 T00390022 $ =
2018-11-19 00:54 METAR KGED 190554Z AUTO 00000KT 6SM BR CLR 05/03 A3019 RMK AO2 SLP222 T00500033
                 10078 20044 58013 $ =
2018-11-18 23:54 METAR KGED 190454Z AUTO 00000KT 7SM CLR 06/04 A3021 RMK AO2 SLP229 T00560039
                 401280000 $ =
2018-11-18 22:54 METAR KGED 190354Z AUTO 00000KT 8SM CLR 06/04 A3021 RMK AO2 SLP230 T00610044 $ =
2018-11-18 21:54 METAR KGED 190254Z AUTO 16003KT 10SM CLR 07/04 A3022 RMK AO2 SLP235 T00670044
                 58011 $ =
2018-11-18 20:54 METAR KGED 190154Z AUTO 00000KT 07/04 A3023 RMK AO2 SLP238 T00670039 $ =
2018-11-18 19:54 METAR KGED 190054Z AUTO 00000KT 10SM CLR 07/04 A3025 RMK AO2 SLP244 T00670044 $
                 =
2018-11-18 18:54 METAR KGED 182354Z AUTO 16004KT 10SM CLR 07/04 A3026 RMK AO2 SLP246 T00720044
                 10128 20072 58005 $ =
2018-11-18 17:54 METAR KGED 182254Z AUTO 14005KT 10SM CLR 08/04 A3027 RMK AO2 SLP249 T00780039 $
                 =
2018-11-18 16:54 METAR KGED 182154Z AUTO 10/04 A3027 RMK AO2 SLP250 T01000044 PWINO $ =
2018-11-18 15:54 METAR KGED 182054Z AUTO 15005KT 10SM CLR 12/04 A3027 RMK AO2 SLP250 T01170044
                 56016 =
2018-11-18 14:54 METAR KGED 181954Z AUTO 15006KT 10SM CLR 12/04 A3027 RMK AO2 SLP252 T01220039 =
2018-11-18 13:54 METAR KGED 181854Z AUTO VRB05KT 10SM CLR 12/03 A3029 RMK AO2 SLP258 T01220033 =
2018-11-18 12:54 METAR KGED 181754Z AUTO VRB05KT 10SM SCT034 13/04 A3032 RMK AO2 SLP266 T01280039
                 10128 20000 58022 =
2018-11-18 11:54 METAR KGED 181654Z AUTO 16008KT 10SM CLR 12/03 A3034 RMK AO2 SLP274 T01170033 =
2018-11-18 10:54 METAR KGED 181554Z AUTO 15004KT 10SM CLR 11/03 A3036 RMK AO2 SLP282 T01060028 $
                 =
2018-11-18 09:54 METAR KGED 181454Z AUTO VRB06KT 10SM CLR 09/02 A3038 RMK AO2 SLP288 T00940022
                 50001 $ =
2018-11-18 08:54 METAR KGED 181354Z AUTO 00000KT 10SM CLR 07/03 A3040 RMK AO2 SLP294 T00720028 $
                 =
2018-11-18 07:54 METAR KGED 181254Z AUTO 00000KT 6SM BR CLR 02/00 A3040 RMK AO2 SLP294 T00170000
                 $ =
2018-11-18 06:54 METAR KGED 181154Z AUTO 00000KT 7SM CLR 01/M02 A3038 RMK AO2 SLP288 T00061017
                 10017 20000 53011 $ =
2018-11-18 05:54 METAR KGED 181054Z AUTO 00000KT 7SM CLR 00/M02 A3036 RMK AO2 SLP281 T00001017 $
                 =
2018-11-18 04:54 METAR KGED 180954Z AUTO 00000KT 7SM CLR 01/M02 A3036 RMK AO2 SLP280 T00061017 $
                 =
2018-11-18 03:54 METAR KGED 180854Z AUTO 00000KT 8SM CLR 01/M01 A3035 RMK AO2 SLP277 T00061011
                 53003 $ =
2018-11-18 02:54 METAR KGED 180754Z AUTO 00000KT 7SM CLR 01/M01 A3035 RMK AO2 SLP276 T00111006 $
                 =

Support USWX by starting your Amazon purchase here.